sensor_id;sensor_type;location;lat;lon;timestamp;temperature;humidity
33825;DHT22;20127;48.962;8.342;2023-04-24T00:00:03;11.70;99.90
33825;DHT22;20127;48.962;8.342;2023-04-24T00:03:06;11.70;99.90
33825;DHT22;20127;48.962;8.342;2023-04-24T00:06:08;11.70;99.90
33825;DHT22;20127;48.962;8.342;2023-04-24T00:09:10;11.70;99.90
33825;DHT22;20127;48.962;8.342;2023-04-24T00:12:12;11.70;99.90
33825;DHT22;20127;48.962;8.342;2023-04-24T00:15:15;11.80;99.90
33825;DHT22;20127;48.962;8.342;2023-04-24T00:18:16;11.80;99.90
33825;DHT22;20127;48.962;8.342;2023-04-24T00:21:18;11.90;99.90
33825;DHT22;20127;48.962;8.342;2023-04-24T00:24:21;12.00;99.90
33825;DHT22;20127;48.962;8.342;2023-04-24T00:27:22;12.00;99.90
33825;DHT22;20127;48.962;8.342;2023-04-24T00:30:25;12.10;99.90
33825;DHT22;20127;48.962;8.342;2023-04-24T00:33:27;12.10;99.90
33825;DHT22;20127;48.962;8.342;2023-04-24T00:36:29;12.10;99.90
33825;DHT22;20127;48.962;8.342;2023-04-24T00:39:31;12.10;99.90
33825;DHT22;20127;48.962;8.342;2023-04-24T00:42:33;12.10;99.90
33825;DHT22;20127;48.962;8.342;2023-04-24T00:45:36;12.00;99.90
33825;DHT22;20127;48.962;8.342;2023-04-24T00:48:38;12.00;99.90
33825;DHT22;20127;48.962;8.342;2023-04-24T00:51:40;12.00;99.90
33825;DHT22;20127;48.962;8.342;2023-04-24T00:54:46;12.00;99.90
33825;DHT22;20127;48.962;8.342;2023-04-24T00:57:48;12.00;99.90
33825;DHT22;20127;48.962;8.342;2023-04-24T01:00:51;12.00;99.90
33825;DHT22;20127;48.962;8.342;2023-04-24T01:03:55;12.00;99.90
33825;DHT22;20127;48.962;8.342;2023-04-24T01:06:57;12.00;99.90
33825;DHT22;20127;48.962;8.342;2023-04-24T01:09:59;11.90;99.90
33825;DHT22;20127;48.962;8.342;2023-04-24T01:13:00;11.90;99.90
33825;DHT22;20127;48.962;8.342;2023-04-24T01:16:04;11.90;99.90
33825;DHT22;20127;48.962;8.342;2023-04-24T01:19:06;11.80;99.90
33825;DHT22;20127;48.962;8.342;2023-04-24T01:22:10;11.80;99.90
33825;DHT22;20127;48.962;8.342;2023-04-24T01:25:13;11.80;99.90
33825;DHT22;20127;48.962;8.342;2023-04-24T01:28:14;11.80;99.90
33825;DHT22;20127;48.962;8.342;2023-04-24T01:31:16;11.90;99.90
33825;DHT22;20127;48.962;8.342;2023-04-24T01:34:18;12.00;99.90
33825;DHT22;20127;48.962;8.342;2023-04-24T01:37:21;12.00;99.90
33825;DHT22;20127;48.962;8.342;2023-04-24T01:40:23;12.10;99.90
33825;DHT22;20127;48.962;8.342;2023-04-24T01:43:25;12.10;99.90
33825;DHT22;20127;48.962;8.342;2023-04-24T01:46:26;12.10;99.90
33825;DHT22;20127;48.962;8.342;2023-04-24T01:49:28;12.10;99.90
33825;DHT22;20127;48.962;8.342;2023-04-24T01:52:32;12.10;99.90
33825;DHT22;20127;48.962;8.342;2023-04-24T01:55:33;12.10;99.90
33825;DHT22;20127;48.962;8.342;2023-04-24T01:58:35;12.00;99.90
33825;DHT22;20127;48.962;8.342;2023-04-24T02:01:37;12.00;99.90
33825;DHT22;20127;48.962;8.342;2023-04-24T02:04:39;12.00;99.90
33825;DHT22;20127;48.962;8.342;2023-04-24T02:07:42;12.00;99.90
33825;DHT22;20127;48.962;8.342;2023-04-24T02:10:44;12.00;99.90
33825;DHT22;20127;48.962;8.342;2023-04-24T02:13:46;11.90;99.90
33825;DHT22;20127;48.962;8.342;2023-04-24T02:16:47;11.90;99.90
33825;DHT22;20127;48.962;8.342;2023-04-24T02:19:49;11.80;99.90
33825;DHT22;20127;48.962;8.342;2023-04-24T02:22:52;11.80;99.90
33825;DHT22;20127;48.962;8.342;2023-04-24T02:25:54;11.80;99.90
33825;DHT22;20127;48.962;8.342;2023-04-24T02:28:56;11.80;99.90
33825;DHT22;20127;48.962;8.342;2023-04-24T02:31:57;11.80;99.90
33825;DHT22;20127;48.962;8.342;2023-04-24T02:34:59;11.90;99.90
33825;DHT22;20127;48.962;8.342;2023-04-24T02:38:03;11.90;99.90
33825;DHT22;20127;48.962;8.342;2023-04-24T02:41:05;11.90;99.90
33825;DHT22;20127;48.962;8.342;2023-04-24T02:44:06;11.90;99.90
33825;DHT22;20127;48.962;8.342;2023-04-24T02:47:08;11.90;99.90
33825;DHT22;20127;48.962;8.342;2023-04-24T02:50:10;11.90;99.90
33825;DHT22;20127;48.962;8.342;2023-04-24T02:53:13;11.80;99.90
33825;DHT22;20127;48.962;8.342;2023-04-24T02:56:14;11.70;99.90
33825;DHT22;20127;48.962;8.342;2023-04-24T02:59:16;11.60;99.90
33825;DHT22;20127;48.962;8.342;2023-04-24T03:02:18;11.40;99.90
33825;DHT22;20127;48.962;8.342;2023-04-24T03:05:21;11.30;99.90
33825;DHT22;20127;48.962;8.342;2023-04-24T03:08:24;11.10;99.90
33825;DHT22;20127;48.962;8.342;2023-04-24T03:11:25;10.90;99.90
33825;DHT22;20127;48.962;8.342;2023-04-24T03:14:27;10.80;99.90
33825;DHT22;20127;48.962;8.342;2023-04-24T03:17:31;10.70;99.90
33825;DHT22;20127;48.962;8.342;2023-04-24T03:20:33;10.70;99.90
33825;DHT22;20127;48.962;8.342;2023-04-24T03:23:36;10.60;99.90
33825;DHT22;20127;48.962;8.342;2023-04-24T03:26:37;10.60;99.90
33825;DHT22;20127;48.962;8.342;2023-04-24T03:29:39;10.60;99.90
33825;DHT22;20127;48.962;8.342;2023-04-24T03:32:41;10.60;99.90
33825;DHT22;20127;48.962;8.342;2023-04-24T03:35:42;10.50;99.90
33825;DHT22;20127;48.962;8.342;2023-04-24T03:38:45;10.50;99.90
33825;DHT22;20127;48.962;8.342;2023-04-24T03:41:47;10.50;99.90
33825;DHT22;20127;48.962;8.342;2023-04-24T03:44:49;10.50;99.90
33825;DHT22;20127;48.962;8.342;2023-04-24T03:47:50;10.50;99.90
33825;DHT22;20127;48.962;8.342;2023-04-24T03:50:52;10.50;99.90
33825;DHT22;20127;48.962;8.342;2023-04-24T03:53:55;10.40;99.90
33825;DHT22;20127;48.962;8.342;2023-04-24T03:56:57;10.40;99.90
33825;DHT22;20127;48.962;8.342;2023-04-24T03:59:58;10.40;99.90
33825;DHT22;20127;48.962;8.342;2023-04-24T04:03:00;10.30;99.90
33825;DHT22;20127;48.962;8.342;2023-04-24T04:06:02;10.20;99.90
33825;DHT22;20127;48.962;8.342;2023-04-24T04:09:05;10.20;99.90
33825;DHT22;20127;48.962;8.342;2023-04-24T04:12:07;10.10;99.90
33825;DHT22;20127;48.962;8.342;2023-04-24T04:15:09;10.00;99.90
33825;DHT22;20127;48.962;8.342;2023-04-24T04:18:11;10.00;99.90
33825;DHT22;20127;48.962;8.342;2023-04-24T04:21:13;9.90;99.90
33825;DHT22;20127;48.962;8.342;2023-04-24T04:24:16;9.90;99.90
33825;DHT22;20127;48.962;8.342;2023-04-24T04:27:18;9.80;99.90
33825;DHT22;20127;48.962;8.342;2023-04-24T04:30:21;9.70;99.90
33825;DHT22;20127;48.962;8.342;2023-04-24T04:33:24;9.60;99.90
33825;DHT22;20127;48.962;8.342;2023-04-24T04:36:26;9.60;99.90
33825;DHT22;20127;48.962;8.342;2023-04-24T04:39:31;9.50;99.90
33825;DHT22;20127;48.962;8.342;2023-04-24T04:42:33;9.40;99.90
33825;DHT22;20127;48.962;8.342;2023-04-24T04:45:35;9.40;99.90
33825;DHT22;20127;48.962;8.342;2023-04-24T04:48:37;9.40;99.90
33825;DHT22;20127;48.962;8.342;2023-04-24T04:51:39;9.40;99.90
33825;DHT22;20127;48.962;8.342;2023-04-24T04:54:42;9.40;99.90
33825;DHT22;20127;48.962;8.342;2023-04-24T04:57:44;9.40;99.90
33825;DHT22;20127;48.962;8.342;2023-04-24T05:00:46;9.40;99.90
33825;DHT22;20127;48.962;8.342;2023-04-24T05:03:48;9.50;99.90
33825;DHT22;20127;48.962;8.342;2023-04-24T05:06:49;9.50;99.90
33825;DHT22;20127;48.962;8.342;2023-04-24T05:09:53;9.70;99.90
33825;DHT22;20127;48.962;8.342;2023-04-24T05:12:55;9.80;99.90
33825;DHT22;20127;48.962;8.342;2023-04-24T05:15:57;10.00;99.90
33825;DHT22;20127;48.962;8.342;2023-04-24T05:18:59;10.30;99.90
33825;DHT22;20127;48.962;8.342;2023-04-24T05:22:01;10.50;99.90
33825;DHT22;20127;48.962;8.342;2023-04-24T05:25:05;10.70;99.90
33825;DHT22;20127;48.962;8.342;2023-04-24T05:28:07;11.00;99.90
33825;DHT22;20127;48.962;8.342;2023-04-24T05:31:08;11.20;99.90
33825;DHT22;20127;48.962;8.342;2023-04-24T05:34:10;11.30;99.90
33825;DHT22;20127;48.962;8.342;2023-04-24T05:37:12;11.30;99.90
33825;DHT22;20127;48.962;8.342;2023-04-24T05:40:15;11.30;99.90
33825;DHT22;20127;48.962;8.342;2023-04-24T05:43:17;11.30;99.90
33825;DHT22;20127;48.962;8.342;2023-04-24T05:46:18;11.20;99.90
33825;DHT22;20127;48.962;8.342;2023-04-24T05:49:20;11.20;99.90
33825;DHT22;20127;48.962;8.342;2023-04-24T05:52:22;11.20;99.90
33825;DHT22;20127;48.962;8.342;2023-04-24T05:55:25;11.20;99.90
33825;DHT22;20127;48.962;8.342;2023-04-24T05:58:27;11.20;99.90
33825;DHT22;20127;48.962;8.342;2023-04-24T06:01:28;11.30;99.90
33825;DHT22;20127;48.962;8.342;2023-04-24T06:04:32;11.20;99.90
33825;DHT22;20127;48.962;8.342;2023-04-24T06:07:33;11.10;99.90
33825;DHT22;20127;48.962;8.342;2023-04-24T06:10:36;11.10;99.90
33825;DHT22;20127;48.962;8.342;2023-04-24T06:13:38;11.10;99.90
33825;DHT22;20127;48.962;8.342;2023-04-24T06:16:41;11.10;99.90
33825;DHT22;20127;48.962;8.342;2023-04-24T06:19:43;11.10;99.90
33825;DHT22;20127;48.962;8.342;2023-04-24T06:22:45;11.20;99.90
33825;DHT22;20127;48.962;8.342;2023-04-24T06:25:48;11.20;99.90
33825;DHT22;20127;48.962;8.342;2023-04-24T06:28:50;11.50;99.90
33825;DHT22;20127;48.962;8.342;2023-04-24T06:31:52;11.80;99.90
33825;DHT22;20127;48.962;8.342;2023-04-24T06:34:53;12.00;99.90
33825;DHT22;20127;48.962;8.342;2023-04-24T06:37:55;12.00;99.90
33825;DHT22;20127;48.962;8.342;2023-04-24T06:40:58;12.00;99.90
33825;DHT22;20127;48.962;8.342;2023-04-24T06:44:00;12.30;99.90
33825;DHT22;20127;48.962;8.342;2023-04-24T06:47:02;12.40;99.90
33825;DHT22;20127;48.962;8.342;2023-04-24T06:50:05;12.40;99.90
33825;DHT22;20127;48.962;8.342;2023-04-24T06:53:07;12.50;99.90
33825;DHT22;20127;48.962;8.342;2023-04-24T06:56:10;12.70;99.90
33825;DHT22;20127;48.962;8.342;2023-04-24T06:59:11;12.90;99.90
33825;DHT22;20127;48.962;8.342;2023-04-24T07:02:13;13.10;99.90
33825;DHT22;20127;48.962;8.342;2023-04-24T07:05:15;13.30;99.90
33825;DHT22;20127;48.962;8.342;2023-04-24T07:08:20;13.10;99.90
33825;DHT22;20127;48.962;8.342;2023-04-24T07:11:23;13.40;99.90
33825;DHT22;20127;48.962;8.342;2023-04-24T07:14:29;14.00;99.90
33825;DHT22;20127;48.962;8.342;2023-04-24T07:17:31;14.30;99.90
33825;DHT22;20127;48.962;8.342;2023-04-24T07:20:33;14.40;99.90
33825;DHT22;20127;48.962;8.342;2023-04-24T07:23:35;14.30;99.90
33825;DHT22;20127;48.962;8.342;2023-04-24T07:26:38;14.40;99.90
33825;DHT22;20127;48.962;8.342;2023-04-24T07:29:40;14.50;99.90
33825;DHT22;20127;48.962;8.342;2023-04-24T07:32:42;14.50;99.90
33825;DHT22;20127;48.962;8.342;2023-04-24T07:35:44;14.60;99.90
33825;DHT22;20127;48.962;8.342;2023-04-24T07:38:46;14.50;99.90
33825;DHT22;20127;48.962;8.342;2023-04-24T07:41:49;14.30;99.90
33825;DHT22;20127;48.962;8.342;2023-04-24T07:44:50;14.00;99.90
33825;DHT22;20127;48.962;8.342;2023-04-24T07:47:52;13.60;99.90
33825;DHT22;20127;48.962;8.342;2023-04-24T07:50:54;13.40;99.90
33825;DHT22;20127;48.962;8.342;2023-04-24T07:53:55;13.10;99.90
33825;DHT22;20127;48.962;8.342;2023-04-24T07:56:58;12.90;99.90
33825;DHT22;20127;48.962;8.342;2023-04-24T08:00:00;12.60;99.90
33825;DHT22;20127;48.962;8.342;2023-04-24T08:03:02;12.40;99.90
33825;DHT22;20127;48.962;8.342;2023-04-24T08:06:04;12.30;99.90
33825;DHT22;20127;48.962;8.342;2023-04-24T08:09:06;12.20;99.90
33825;DHT22;20127;48.962;8.342;2023-04-24T08:12:10;12.30;99.90
33825;DHT22;20127;48.962;8.342;2023-04-24T08:15:11;12.40;99.90
33825;DHT22;20127;48.962;8.342;2023-04-24T08:18:13;12.50;99.90
33825;DHT22;20127;48.962;8.342;2023-04-24T08:21:16;12.60;99.90
33825;DHT22;20127;48.962;8.342;2023-04-24T08:24:19;12.30;99.90
33825;DHT22;20127;48.962;8.342;2023-04-24T08:27:22;12.00;99.90
33825;DHT22;20127;48.962;8.342;2023-04-24T08:30:24;11.80;99.90
33825;DHT22;20127;48.962;8.342;2023-04-24T08:33:25;11.60;99.90
33825;DHT22;20127;48.962;8.342;2023-04-24T08:36:27;11.40;99.90
33825;DHT22;20127;48.962;8.342;2023-04-24T08:39:29;11.30;99.90
33825;DHT22;20127;48.962;8.342;2023-04-24T08:42:34;11.20;99.90
33825;DHT22;20127;48.962;8.342;2023-04-24T08:45:37;11.30;99.90
33825;DHT22;20127;48.962;8.342;2023-04-24T08:48:39;11.40;99.90
33825;DHT22;20127;48.962;8.342;2023-04-24T08:51:41;12.00;99.90
33825;DHT22;20127;48.962;8.342;2023-04-24T08:54:43;13.10;99.90
33825;DHT22;20127;48.962;8.342;2023-04-24T08:57:51;14.20;99.90
33825;DHT22;20127;48.962;8.342;2023-04-24T09:00:55;15.00;99.90
33825;DHT22;20127;48.962;8.342;2023-04-24T09:03:56;15.60;99.90
33825;DHT22;20127;48.962;8.342;2023-04-24T09:06:59;15.60;99.90
33825;DHT22;20127;48.962;8.342;2023-04-24T09:10:02;15.50;99.90
33825;DHT22;20127;48.962;8.342;2023-04-24T09:13:05;15.10;99.90
33825;DHT22;20127;48.962;8.342;2023-04-24T09:16:09;14.90;99.90
33825;DHT22;20127;48.962;8.342;2023-04-24T09:19:11;14.90;99.90
33825;DHT22;20127;48.962;8.342;2023-04-24T09:22:12;15.10;99.90
33825;DHT22;20127;48.962;8.342;2023-04-24T09:25:14;15.80;99.90
33825;DHT22;20127;48.962;8.342;2023-04-24T09:28:17;15.90;99.90
33825;DHT22;20127;48.962;8.342;2023-04-24T09:31:19;15.30;99.90
33825;DHT22;20127;48.962;8.342;2023-04-24T09:34:24;15.20;99.90
33825;DHT22;20127;48.962;8.342;2023-04-24T09:37:29;15.10;99.90
33825;DHT22;20127;48.962;8.342;2023-04-24T09:40:34;14.90;99.90
33825;DHT22;20127;48.962;8.342;2023-04-24T09:43:37;14.70;99.90
33825;DHT22;20127;48.962;8.342;2023-04-24T09:46:40;14.40;99.90
33825;DHT22;20127;48.962;8.342;2023-04-24T09:49:42;14.30;99.90
33825;DHT22;20127;48.962;8.342;2023-04-24T09:52:44;14.10;99.90
33825;DHT22;20127;48.962;8.342;2023-04-24T09:55:46;14.00;99.90
33825;DHT22;20127;48.962;8.342;2023-04-24T09:58:50;13.90;99.90
33825;DHT22;20127;48.962;8.342;2023-04-24T10:01:53;13.90;99.90
33825;DHT22;20127;48.962;8.342;2023-04-24T10:04:55;13.80;99.90
33825;DHT22;20127;48.962;8.342;2023-04-24T10:07:59;14.10;99.90
33825;DHT22;20127;48.962;8.342;2023-04-24T10:11:01;14.10;99.90
33825;DHT22;20127;48.962;8.342;2023-04-24T10:14:05;14.00;99.90
33825;DHT22;20127;48.962;8.342;2023-04-24T10:17:07;13.90;99.90
33825;DHT22;20127;48.962;8.342;2023-04-24T10:20:10;13.90;99.90
33825;DHT22;20127;48.962;8.342;2023-04-24T10:23:12;13.90;99.90
33825;DHT22;20127;48.962;8.342;2023-04-24T10:26:14;13.80;99.90
33825;DHT22;20127;48.962;8.342;2023-04-24T10:29:19;13.60;99.90
33825;DHT22;20127;48.962;8.342;2023-04-24T10:32:22;13.60;99.90
33825;DHT22;20127;48.962;8.342;2023-04-24T10:35:24;13.60;99.90
33825;DHT22;20127;48.962;8.342;2023-04-24T10:38:28;13.60;99.90
33825;DHT22;20127;48.962;8.342;2023-04-24T10:41:31;13.50;99.90
33825;DHT22;20127;48.962;8.342;2023-04-24T10:44:37;13.40;99.90
33825;DHT22;20127;48.962;8.342;2023-04-24T10:47:41;13.20;99.90
33825;DHT22;20127;48.962;8.342;2023-04-24T10:50:50;13.10;99.90
33825;DHT22;20127;48.962;8.342;2023-04-24T10:57:27;12.70;99.90
33825;DHT22;20127;48.962;8.342;2023-04-24T11:00:32;12.50;99.90
33825;DHT22;20127;48.962;8.342;2023-04-24T11:03:35;12.50;99.90
33825;DHT22;20127;48.962;8.342;2023-04-24T11:06:37;12.40;99.90
33825;DHT22;20127;48.962;8.342;2023-04-24T11:09:39;12.40;99.90
33825;DHT22;20127;48.962;8.342;2023-04-24T11:12:44;12.50;99.90
33825;DHT22;20127;48.962;8.342;2023-04-24T11:16:13;12.50;99.90
33825;DHT22;20127;48.962;8.342;2023-04-24T11:19:21;12.70;99.90
33825;DHT22;20127;48.962;8.342;2023-04-24T11:22:24;12.80;99.90
33825;DHT22;20127;48.962;8.342;2023-04-24T11:25:30;12.90;99.90
33825;DHT22;20127;48.962;8.342;2023-04-24T11:28:32;13.00;99.90
33825;DHT22;20127;48.962;8.342;2023-04-24T11:31:39;13.00;99.90
33825;DHT22;20127;48.962;8.342;2023-04-24T11:34:44;13.00;99.90
33825;DHT22;20127;48.962;8.342;2023-04-24T11:37:47;12.80;99.90
33825;DHT22;20127;48.962;8.342;2023-04-24T11:40:50;12.70;99.90
33825;DHT22;20127;48.962;8.342;2023-04-24T11:44:13;12.50;99.90
33825;DHT22;20127;48.962;8.342;2023-04-24T11:47:30;12.30;99.90
33825;DHT22;20127;48.962;8.342;2023-04-24T11:50:34;12.10;99.90
33825;DHT22;20127;48.962;8.342;2023-04-24T11:53:36;11.90;99.90
33825;DHT22;20127;48.962;8.342;2023-04-24T11:56:38;12.00;99.90
33825;DHT22;20127;48.962;8.342;2023-04-24T11:59:40;12.10;99.90
33825;DHT22;20127;48.962;8.342;2023-04-24T12:02:43;12.40;99.90
33825;DHT22;20127;48.962;8.342;2023-04-24T12:05:44;12.50;99.90
33825;DHT22;20127;48.962;8.342;2023-04-24T12:08:46;12.80;99.90
33825;DHT22;20127;48.962;8.342;2023-04-24T12:11:52;13.00;99.90
33825;DHT22;20127;48.962;8.342;2023-04-24T12:14:56;13.40;99.90
33825;DHT22;20127;48.962;8.342;2023-04-24T12:17:59;13.70;99.90
33825;DHT22;20127;48.962;8.342;2023-04-24T12:21:18;13.70;99.90
33825;DHT22;20127;48.962;8.342;2023-04-24T12:24:20;13.70;99.90
33825;DHT22;20127;48.962;8.342;2023-04-24T12:27:22;13.70;99.90
33825;DHT22;20127;48.962;8.342;2023-04-24T12:30:27;13.80;99.90
33825;DHT22;20127;48.962;8.342;2023-04-24T12:33:34;14.10;99.90
33825;DHT22;20127;48.962;8.342;2023-04-24T12:36:35;14.40;99.90
33825;DHT22;20127;48.962;8.342;2023-04-24T12:39:37;14.70;99.90
33825;DHT22;20127;48.962;8.342;2023-04-24T12:42:42;14.80;99.90
33825;DHT22;20127;48.962;8.342;2023-04-24T12:45:45;15.10;99.90
33825;DHT22;20127;48.962;8.342;2023-04-24T12:48:48;15.30;99.90
33825;DHT22;20127;48.962;8.342;2023-04-24T12:51:50;15.50;99.90
33825;DHT22;20127;48.962;8.342;2023-04-24T12:54:53;15.80;99.90
33825;DHT22;20127;48.962;8.342;2023-04-24T12:57:55;16.10;99.90
33825;DHT22;20127;48.962;8.342;2023-04-24T13:00:57;16.10;99.90
33825;DHT22;20127;48.962;8.342;2023-04-24T13:04:00;15.90;99.90
33825;DHT22;20127;48.962;8.342;2023-04-24T13:07:01;15.70;99.90
33825;DHT22;20127;48.962;8.342;2023-04-24T13:10:04;15.50;99.90
33825;DHT22;20127;48.962;8.342;2023-04-24T13:13:06;15.40;99.90
33825;DHT22;20127;48.962;8.342;2023-04-24T13:16:07;15.30;99.90
33825;DHT22;20127;48.962;8.342;2023-04-24T13:19:10;15.30;99.90
33825;DHT22;20127;48.962;8.342;2023-04-24T13:22:12;15.70;99.90
33825;DHT22;20127;48.962;8.342;2023-04-24T13:25:14;16.10;99.90
33825;DHT22;20127;48.962;8.342;2023-04-24T13:28:17;16.50;99.90
33825;DHT22;20127;48.962;8.342;2023-04-24T13:31:19;16.70;99.90
33825;DHT22;20127;48.962;8.342;2023-04-24T13:34:22;16.80;99.90
33825;DHT22;20127;48.962;8.342;2023-04-24T13:37:23;16.80;99.90
33825;DHT22;20127;48.962;8.342;2023-04-24T13:40:26;16.80;99.90
33825;DHT22;20127;48.962;8.342;2023-04-24T13:43:28;16.80;99.90
33825;DHT22;20127;48.962;8.342;2023-04-24T13:46:30;16.50;99.90
33825;DHT22;20127;48.962;8.342;2023-04-24T13:49:33;16.10;99.90
33825;DHT22;20127;48.962;8.342;2023-04-24T13:52:35;15.90;99.90
33825;DHT22;20127;48.962;8.342;2023-04-24T13:55:37;15.80;99.90
33825;DHT22;20127;48.962;8.342;2023-04-24T13:58:39;15.70;99.80
33825;DHT22;20127;48.962;8.342;2023-04-24T14:01:41;15.40;99.90
33825;DHT22;20127;48.962;8.342;2023-04-24T14:04:44;15.30;99.90
33825;DHT22;20127;48.962;8.342;2023-04-24T14:07:46;15.10;99.90
33825;DHT22;20127;48.962;8.342;2023-04-24T14:10:47;14.80;99.60
33825;DHT22;20127;48.962;8.342;2023-04-24T14:13:49;14.60;99.90
33825;DHT22;20127;48.962;8.342;2023-04-24T14:16:51;14.30;99.90
33825;DHT22;20127;48.962;8.342;2023-04-24T14:19:54;14.20;99.90
33825;DHT22;20127;48.962;8.342;2023-04-24T14:22:56;14.20;99.90
33825;DHT22;20127;48.962;8.342;2023-04-24T14:25:59;14.30;99.90
33825;DHT22;20127;48.962;8.342;2023-04-24T14:29:01;14.70;99.90
33825;DHT22;20127;48.962;8.342;2023-04-24T14:32:03;15.20;99.90
33825;DHT22;20127;48.962;8.342;2023-04-24T14:35:07;15.70;99.50
33825;DHT22;20127;48.962;8.342;2023-04-24T14:38:09;16.20;98.30
33825;DHT22;20127;48.962;8.342;2023-04-24T14:41:11;16.30;96.70
33825;DHT22;20127;48.962;8.342;2023-04-24T14:44:12;16.20;95.30
33825;DHT22;20127;48.962;8.342;2023-04-24T14:47:14;15.90;95.40
33825;DHT22;20127;48.962;8.342;2023-04-24T14:50:19;15.90;95.50
33825;DHT22;20127;48.962;8.342;2023-04-24T14:53:21;15.80;95.20
33825;DHT22;20127;48.962;8.342;2023-04-24T14:56:23;15.80;95.30
33825;DHT22;20127;48.962;8.342;2023-04-24T14:59:25;15.60;95.10
33825;DHT22;20127;48.962;8.342;2023-04-24T15:02:26;15.50;95.30
33825;DHT22;20127;48.962;8.342;2023-04-24T15:05:29;15.20;95.00
33825;DHT22;20127;48.962;8.342;2023-04-24T15:08:31;15.00;95.10
33825;DHT22;20127;48.962;8.342;2023-04-24T15:11:33;14.90;95.40
33825;DHT22;20127;48.962;8.342;2023-04-24T15:14:35;14.70;95.40
33825;DHT22;20127;48.962;8.342;2023-04-24T15:17:36;14.70;95.70
33825;DHT22;20127;48.962;8.342;2023-04-24T15:20:39;14.70;95.70
33825;DHT22;20127;48.962;8.342;2023-04-24T15:23:41;14.70;95.40
33825;DHT22;20127;48.962;8.342;2023-04-24T15:26:43;14.80;95.70
33825;DHT22;20127;48.962;8.342;2023-04-24T15:29:45;15.20;95.50
33825;DHT22;20127;48.962;8.342;2023-04-24T15:32:46;15.50;94.80
33825;DHT22;20127;48.962;8.342;2023-04-24T15:35:50;15.40;94.40
33825;DHT22;20127;48.962;8.342;2023-04-24T15:38:51;15.30;94.30
33825;DHT22;20127;48.962;8.342;2023-04-24T15:41:53;15.00;93.90
33825;DHT22;20127;48.962;8.342;2023-04-24T15:44:55;14.70;93.90
33825;DHT22;20127;48.962;8.342;2023-04-24T15:47:57;14.50;94.10
33825;DHT22;20127;48.962;8.342;2023-04-24T15:51:00;14.30;93.90
33825;DHT22;20127;48.962;8.342;2023-04-24T15:54:02;14.10;94.20
33825;DHT22;20127;48.962;8.342;2023-04-24T15:57:04;14.00;94.40
33825;DHT22;20127;48.962;8.342;2023-04-24T16:00:06;14.00;94.70
33825;DHT22;20127;48.962;8.342;2023-04-24T16:03:09;14.10;94.80
33825;DHT22;20127;48.962;8.342;2023-04-24T16:06:12;13.90;94.70
33825;DHT22;20127;48.962;8.342;2023-04-24T16:09:14;13.80;95.10
33825;DHT22;20127;48.962;8.342;2023-04-24T16:12:16;13.80;95.50
33825;DHT22;20127;48.962;8.342;2023-04-24T16:15:17;13.90;95.60
33825;DHT22;20127;48.962;8.342;2023-04-24T16:18:20;13.90;95.60
33825;DHT22;20127;48.962;8.342;2023-04-24T16:21:25;14.00;95.70
33825;DHT22;20127;48.962;8.342;2023-04-24T16:24:27;14.00;95.70
33825;DHT22;20127;48.962;8.342;2023-04-24T16:27:28;14.00;95.70
33825;DHT22;20127;48.962;8.342;2023-04-24T16:30:31;13.90;95.90
33825;DHT22;20127;48.962;8.342;2023-04-24T16:33:33;13.80;95.80
33825;DHT22;20127;48.962;8.342;2023-04-24T16:36:36;13.80;96.00
33825;DHT22;20127;48.962;8.342;2023-04-24T16:39:37;13.70;96.10
33825;DHT22;20127;48.962;8.342;2023-04-24T16:42:44;13.80;96.30
33825;DHT22;20127;48.962;8.342;2023-04-24T16:45:45;13.70;96.10
33825;DHT22;20127;48.962;8.342;2023-04-24T16:48:47;13.70;96.30
33825;DHT22;20127;48.962;8.342;2023-04-24T16:51:50;13.70;96.40
33825;DHT22;20127;48.962;8.342;2023-04-24T16:54:52;13.80;96.30
33825;DHT22;20127;48.962;8.342;2023-04-24T16:57:53;13.80;96.30
33825;DHT22;20127;48.962;8.342;2023-04-24T17:00:55;14.00;96.50
33825;DHT22;20127;48.962;8.342;2023-04-24T17:03:57;14.10;96.80
33825;DHT22;20127;48.962;8.342;2023-04-24T17:07:00;14.20;96.70
33825;DHT22;20127;48.962;8.342;2023-04-24T17:10:02;14.40;96.70
33825;DHT22;20127;48.962;8.342;2023-04-24T17:13:04;14.40;96.70
33825;DHT22;20127;48.962;8.342;2023-04-24T17:16:06;14.40;96.60
33825;DHT22;20127;48.962;8.342;2023-04-24T17:19:08;14.30;96.70
33825;DHT22;20127;48.962;8.342;2023-04-24T17:22:11;14.30;97.20
33825;DHT22;20127;48.962;8.342;2023-04-24T17:25:13;14.30;97.30
33825;DHT22;20127;48.962;8.342;2023-04-24T17:28:23;14.20;97.40
33825;DHT22;20127;48.962;8.342;2023-04-24T17:31:25;14.00;97.90
33825;DHT22;20127;48.962;8.342;2023-04-24T17:34:27;14.00;98.00
33825;DHT22;20127;48.962;8.342;2023-04-24T17:37:30;14.00;98.20
33825;DHT22;20127;48.962;8.342;2023-04-24T17:40:31;14.00;98.60
33825;DHT22;20127;48.962;8.342;2023-04-24T17:43:33;14.10;98.80
33825;DHT22;20127;48.962;8.342;2023-04-24T17:46:35;14.10;99.00
33825;DHT22;20127;48.962;8.342;2023-04-24T17:49:37;14.10;99.10
33825;DHT22;20127;48.962;8.342;2023-04-24T17:52:40;14.00;99.10
33825;DHT22;20127;48.962;8.342;2023-04-24T17:55:42;13.90;99.30
33825;DHT22;20127;48.962;8.342;2023-04-24T17:58:44;13.60;99.60
33825;DHT22;20127;48.962;8.342;2023-04-24T18:01:45;13.40;99.90
33825;DHT22;20127;48.962;8.342;2023-04-24T18:04:47;13.30;99.90
33825;DHT22;20127;48.962;8.342;2023-04-24T18:07:50;13.20;99.90
33825;DHT22;20127;48.962;8.342;2023-04-24T18:10:52;13.20;99.90
33825;DHT22;20127;48.962;8.342;2023-04-24T18:13:54;13.30;99.90
33825;DHT22;20127;48.962;8.342;2023-04-24T18:16:55;13.50;99.90
33825;DHT22;20127;48.962;8.342;2023-04-24T18:19:57;13.40;99.90
33825;DHT22;20127;48.962;8.342;2023-04-24T18:23:00;13.30;99.90
33825;DHT22;20127;48.962;8.342;2023-04-24T18:26:03;13.00;99.90
33825;DHT22;20127;48.962;8.342;2023-04-24T18:29:04;12.80;99.90
33825;DHT22;20127;48.962;8.342;2023-04-24T18:32:06;12.60;99.90
33825;DHT22;20127;48.962;8.342;2023-04-24T18:35:08;12.40;99.90
33825;DHT22;20127;48.962;8.342;2023-04-24T18:38:12;12.20;99.90
33825;DHT22;20127;48.962;8.342;2023-04-24T18:41:14;12.10;99.90
33825;DHT22;20127;48.962;8.342;2023-04-24T18:44:16;12.00;99.90
33825;DHT22;20127;48.962;8.342;2023-04-24T18:47:19;11.80;99.90
33825;DHT22;20127;48.962;8.342;2023-04-24T18:50:21;11.70;99.90
33825;DHT22;20127;48.962;8.342;2023-04-24T18:53:24;11.70;99.90
33825;DHT22;20127;48.962;8.342;2023-04-24T18:56:26;11.60;99.90
33825;DHT22;20127;48.962;8.342;2023-04-24T18:59:27;11.60;99.90
33825;DHT22;20127;48.962;8.342;2023-04-24T19:02:29;11.60;99.90
33825;DHT22;20127;48.962;8.342;2023-04-24T19:05:31;11.60;99.90
33825;DHT22;20127;48.962;8.342;2023-04-24T19:08:34;11.50;99.90
33825;DHT22;20127;48.962;8.342;2023-04-24T19:11:37;11.50;99.90
33825;DHT22;20127;48.962;8.342;2023-04-24T19:14:41;11.50;99.90
33825;DHT22;20127;48.962;8.342;2023-04-24T19:17:42;11.50;99.90